EJU78YG LSGG-LEBL
Flight info
| Callsign | EJU78YG |
|---|---|
| Flight time | N/A |
| Altitude | 29000 |
| Route | BALSI DCT RETNO DCT TUPOX DCT MTG DCT DIVKO DCT NILDU N975 BISBA |
| Aircraft | A320/M-SDE3FGHIRWY/LB1 |
Departure
| Time | N/A |
|---|---|
| Airport | Geneva International Airport (LSGG) |
Arrival
| Time | 2026-05-08 01:06 |
|---|---|
| Airport | Josep Tarradellas Barcelona-El Prat Airport (LEBL) |
| Time | Latitude | Longitude | Altitude | Speed | Heading |
|---|---|---|---|---|---|
| 2026-05-08 00:23 | 44.04518 | 5.40905 | 29027 ft | 387 kts | 206° |
| 2026-05-08 00:24 | 43.94341 | 5.34319 | 29028 ft | 387 kts | 206° |
| 2026-05-08 00:25 | 43.90151 | 5.31604 | 29026 ft | 387 kts | 206° |
| 2026-05-08 00:25 | 43.86694 | 5.29369 | 29028 ft | 387 kts | 206° |
| 2026-05-08 00:26 | 43.81956 | 5.26310 | 29026 ft | 387 kts | 206° |
| 2026-05-08 00:26 | 43.78650 | 5.24179 | 29026 ft | 387 kts | 206° |
| 2026-05-08 00:27 | 43.74166 | 5.21292 | 29027 ft | 387 kts | 206° |
| 2026-05-08 00:27 | 43.72164 | 5.20005 | 29026 ft | 387 kts | 206° |
| 2026-05-08 00:28 | 43.69461 | 5.18268 | 29027 ft | 387 kts | 206° |
| 2026-05-08 00:29 | 43.63063 | 5.14165 | 29027 ft | 386 kts | 206° |
| 2026-05-08 00:29 | 43.58209 | 5.11058 | 29027 ft | 386 kts | 206° |
| 2026-05-08 00:30 | 43.53278 | 5.07909 | 29027 ft | 386 kts | 206° |
| 2026-05-08 00:30 | 43.48365 | 5.04775 | 29026 ft | 386 kts | 206° |
| 2026-05-08 00:31 | 43.43674 | 5.01786 | 29025 ft | 384 kts | 206° |
| 2026-05-08 00:31 | 43.38957 | 4.98781 | 29026 ft | 382 kts | 206° |
| 2026-05-08 00:32 | 43.34190 | 4.95746 | 29026 ft | 382 kts | 206° |
| 2026-05-08 00:32 | 43.29343 | 4.92670 | 29026 ft | 383 kts | 206° |
| 2026-05-08 00:33 | 43.24434 | 4.89561 | 29026 ft | 382 kts | 205° |
| 2026-05-08 00:33 | 43.19577 | 4.86491 | 29026 ft | 382 kts | 205° |
| 2026-05-08 00:34 | 43.14703 | 4.83418 | 29026 ft | 382 kts | 205° |
| 2026-05-08 00:34 | 43.09872 | 4.80267 | 29017 ft | 382 kts | 213° |
| 2026-05-08 00:35 | 43.05696 | 4.75501 | 29024 ft | 384 kts | 220° |
| 2026-05-08 00:35 | 43.01765 | 4.70764 | 29021 ft | 385 kts | 220° |
| 2026-05-08 00:36 | 42.97674 | 4.65893 | 29019 ft | 386 kts | 220° |
| 2026-05-08 00:36 | 42.93575 | 4.61053 | 29020 ft | 386 kts | 220° |
| 2026-05-08 00:37 | 42.89556 | 4.56324 | 29019 ft | 386 kts | 220° |
| 2026-05-08 00:38 | 42.84534 | 4.50433 | 29019 ft | 385 kts | 220° |
| 2026-05-08 00:38 | 42.80623 | 4.45857 | 29019 ft | 385 kts | 220° |
| 2026-05-08 00:39 | 42.76550 | 4.41100 | 29019 ft | 386 kts | 220° |
| 2026-05-08 00:39 | 42.72484 | 4.36360 | 29017 ft | 386 kts | 220° |
| 2026-05-08 00:40 | 42.69575 | 4.32838 | 29020 ft | 387 kts | 223° |
| 2026-05-08 00:40 | 42.66291 | 4.28352 | 29019 ft | 387 kts | 223° |
| 2026-05-08 00:41 | 42.62497 | 4.23152 | 29019 ft | 387 kts | 223° |
| 2026-05-08 00:41 | 42.58658 | 4.17940 | 29019 ft | 387 kts | 223° |
| 2026-05-08 00:42 | 42.54830 | 4.12771 | 29019 ft | 387 kts | 223° |
| 2026-05-08 00:42 | 42.51022 | 4.07645 | 29019 ft | 387 kts | 223° |
| 2026-05-08 00:43 | 42.47157 | 4.02459 | 29019 ft | 387 kts | 223° |
| 2026-05-08 00:43 | 42.43339 | 3.97348 | 29019 ft | 387 kts | 223° |
| 2026-05-08 00:44 | 42.39481 | 3.92190 | 29019 ft | 387 kts | 223° |
| 2026-05-08 00:44 | 42.35640 | 3.87063 | 29019 ft | 388 kts | 223° |
| 2026-05-08 00:45 | 42.31770 | 3.81907 | 29019 ft | 388 kts | 223° |
| 2026-05-08 00:45 | 42.27900 | 3.76762 | 29019 ft | 388 kts | 223° |
| 2026-05-08 00:46 | 42.24055 | 3.71658 | 29020 ft | 388 kts | 223° |
| 2026-05-08 00:46 | 42.20181 | 3.66526 | 29020 ft | 388 kts | 223° |
| 2026-05-08 00:47 | 42.16333 | 3.61437 | 29020 ft | 388 kts | 223° |
| 2026-05-08 00:47 | 42.12463 | 3.56328 | 29020 ft | 388 kts | 223° |
| 2026-05-08 00:48 | 42.08585 | 3.51223 | 29020 ft | 388 kts | 223° |
| 2026-05-08 00:48 | 42.04718 | 3.46143 | 29020 ft | 387 kts | 223° |
| 2026-05-08 00:49 | 42.00829 | 3.41040 | 29020 ft | 387 kts | 223° |
| 2026-05-08 00:49 | 41.97007 | 3.36042 | 28916 ft | 393 kts | 224° |
| 2026-05-08 00:49 | 41.95123 | 3.33578 | 28676 ft | 396 kts | 223° |
| 2026-05-08 00:50 | 41.93144 | 3.30990 | 28425 ft | 397 kts | 223° |
| 2026-05-08 00:50 | 41.91798 | 3.29233 | 28255 ft | 396 kts | 223° |
| 2026-05-08 00:50 | 41.89210 | 3.25854 | 27928 ft | 396 kts | 224° |
| 2026-05-08 00:50 | 41.87307 | 3.23371 | 27687 ft | 396 kts | 224° |
| 2026-05-08 00:51 | 41.85296 | 3.20750 | 27351 ft | 397 kts | 224° |
| 2026-05-08 00:51 | 41.83281 | 3.18129 | 26823 ft | 399 kts | 224° |
| 2026-05-08 00:51 | 41.81291 | 3.15540 | 26177 ft | 399 kts | 224° |
| 2026-05-08 00:51 | 41.79275 | 3.12921 | 25446 ft | 400 kts | 224° |
| 2026-05-08 00:52 | 41.77271 | 3.10318 | 24675 ft | 401 kts | 224° |
| 2026-05-08 00:52 | 41.75245 | 3.07690 | 23867 ft | 403 kts | 224° |
| 2026-05-08 00:52 | 41.73203 | 3.05044 | 23086 ft | 403 kts | 224° |
| 2026-05-08 00:52 | 41.71173 | 3.02415 | 22326 ft | 402 kts | 224° |
| 2026-05-08 00:53 | 41.69200 | 2.99863 | 21615 ft | 402 kts | 224° |
| 2026-05-08 00:53 | 41.67158 | 2.97225 | 20913 ft | 400 kts | 224° |
| 2026-05-08 00:53 | 41.65158 | 2.94643 | 20245 ft | 399 kts | 224° |
| 2026-05-08 00:53 | 41.63127 | 2.92023 | 19574 ft | 396 kts | 224° |
| 2026-05-08 00:54 | 41.61117 | 2.89441 | 19026 ft | 394 kts | 223° |
| 2026-05-08 00:54 | 41.59134 | 2.86926 | 18523 ft | 393 kts | 223° |
| 2026-05-08 00:54 | 41.57115 | 2.84372 | 17968 ft | 390 kts | 223° |
| 2026-05-08 00:54 | 41.55129 | 2.81861 | 17315 ft | 389 kts | 223° |
| 2026-05-08 00:55 | 41.53159 | 2.79370 | 16705 ft | 387 kts | 223° |
| 2026-05-08 00:55 | 41.51183 | 2.76869 | 16119 ft | 384 kts | 223° |
| 2026-05-08 00:55 | 41.49257 | 2.74429 | 15559 ft | 381 kts | 223° |
| 2026-05-08 00:55 | 41.47330 | 2.71984 | 14999 ft | 378 kts | 223° |
| 2026-05-08 00:56 | 41.45440 | 2.69589 | 14441 ft | 376 kts | 223° |
| 2026-05-08 00:56 | 41.43529 | 2.67170 | 13870 ft | 373 kts | 223° |
| 2026-05-08 00:56 | 41.41661 | 2.64805 | 13311 ft | 370 kts | 223° |
| 2026-05-08 00:56 | 41.39787 | 2.62425 | 12740 ft | 368 kts | 223° |
| 2026-05-08 00:57 | 41.37936 | 2.60050 | 12159 ft | 365 kts | 225° |
| 2026-05-08 00:57 | 41.36245 | 2.57501 | 11577 ft | 362 kts | 230° |
| 2026-05-08 00:57 | 41.34671 | 2.54903 | 11003 ft | 360 kts | 231° |
| 2026-05-08 00:57 | 41.33138 | 2.52334 | 10426 ft | 357 kts | 231° |
| 2026-05-08 00:58 | 41.31574 | 2.49710 | 9843 ft | 354 kts | 231° |
| 2026-05-08 00:58 | 41.30042 | 2.47140 | 9271 ft | 351 kts | 231° |
| 2026-05-08 00:58 | 41.28506 | 2.44573 | 8694 ft | 349 kts | 231° |
| 2026-05-08 00:58 | 41.27002 | 2.42062 | 8119 ft | 346 kts | 231° |
| 2026-05-08 00:59 | 41.25495 | 2.39550 | 7525 ft | 344 kts | 231° |
| 2026-05-08 00:59 | 41.23980 | 2.37028 | 6949 ft | 342 kts | 231° |
| 2026-05-08 00:59 | 41.22496 | 2.34563 | 6401 ft | 338 kts | 231° |
| 2026-05-08 00:59 | 41.21025 | 2.32122 | 5850 ft | 335 kts | 231° |
| 2026-05-08 01:00 | 41.19572 | 2.29711 | 5299 ft | 333 kts | 231° |
| 2026-05-08 01:00 | 41.18129 | 2.27318 | 4744 ft | 330 kts | 231° |
| 2026-05-08 01:00 | 41.16908 | 2.24746 | 4173 ft | 328 kts | 245° |
| 2026-05-08 01:00 | 41.16090 | 2.21950 | 3876 ft | 317 kts | 250° |
| 2026-05-08 01:01 | 41.15381 | 2.19240 | 3595 ft | 307 kts | 251° |
| 2026-05-08 01:01 | 41.14696 | 2.16571 | 3341 ft | 297 kts | 251° |
| 2026-05-08 01:01 | 41.14042 | 2.14009 | 3088 ft | 288 kts | 251° |
| 2026-05-08 01:01 | 41.13406 | 2.11520 | 2830 ft | 280 kts | 251° |
| 2026-05-08 01:02 | 41.13038 | 2.09010 | 2559 ft | 273 kts | 272° |
| 2026-05-08 01:02 | 41.13406 | 2.06620 | 2321 ft | 254 kts | 288° |
| 2026-05-08 01:02 | 41.14230 | 2.04637 | 2055 ft | 236 kts | 316° |
| 2026-05-08 01:02 | 41.15609 | 2.03621 | 1982 ft | 220 kts | 348° |
| 2026-05-08 01:03 | 41.17052 | 2.03490 | 1981 ft | 200 kts | 5° |
| 2026-05-08 01:03 | 41.18354 | 2.03802 | 1975 ft | 188 kts | 14° |
| 2026-05-08 01:03 | 41.19585 | 2.04286 | 1968 ft | 176 kts | 18° |
| 2026-05-08 01:03 | 41.20712 | 2.04799 | 1702 ft | 167 kts | 18° |
| 2026-05-08 01:04 | 41.21768 | 2.05291 | 1479 ft | 156 kts | 18° |
| 2026-05-08 01:04 | 41.22752 | 2.05744 | 1262 ft | 142 kts | 17° |
| 2026-05-08 01:04 | 41.23644 | 2.06154 | 1031 ft | 133 kts | 17° |
| 2026-05-08 01:04 | 41.24536 | 2.06564 | 852 ft | 134 kts | 17° |
| 2026-05-08 01:05 | 41.25418 | 2.06966 | 732 ft | 134 kts | 17° |
| 2026-05-08 01:05 | 41.26282 | 2.07350 | 605 ft | 134 kts | 17° |
| 2026-05-08 01:05 | 41.27168 | 2.07751 | 422 ft | 134 kts | 17° |
| 2026-05-08 01:05 | 41.28042 | 2.08146 | 221 ft | 133 kts | 17° |
| 2026-05-08 01:06 | 41.28915 | 2.08547 | 41 ft | 132 kts | 17° |
| 2026-05-08 01:06 | 41.29698 | 2.08902 | 23 ft | 99 kts | 19° |
| 2026-05-08 01:06 | 41.30185 | 2.09126 | 23 ft | 51 kts | 19° |
| 2026-05-08 01:06 | 41.30484 | 2.09263 | 23 ft | 31 kts | 17° |
| 2026-05-08 01:07 | 41.30642 | 2.09213 | 23 ft | 23 kts | 319° |
| 2026-05-08 01:07 | 41.30643 | 2.09070 | 23 ft | 17 kts | 202° |
| 2026-05-08 01:07 | 41.30529 | 2.09016 | 23 ft | 17 kts | 197° |
| 2026-05-08 01:07 | 41.30415 | 2.08955 | 23 ft | 17 kts | 225° |
| 2026-05-08 01:08 | 41.30360 | 2.08812 | 23 ft | 17 kts | 244° |
| 2026-05-08 01:08 | 41.30309 | 2.08663 | 23 ft | 16 kts | 250° |
| 2026-05-08 01:08 | 41.30341 | 2.08587 | 23 ft | 9 kts | 333° |
| 2026-05-08 01:08 | 41.30404 | 2.08556 | 23 ft | 10 kts | 338° |
| 2026-05-08 01:09 | 41.30415 | 2.08481 | 23 ft | 10 kts | 243° |
| 2026-05-08 01:09 | 41.30372 | 2.08400 | 23 ft | 11 kts | 194° |
| 2026-05-08 01:09 | 41.30327 | 2.08388 | 23 ft | 7 kts | 286° |
| 2026-05-08 01:09 | 41.30357 | 2.08337 | 23 ft | 4 kts | 306° |
| 2026-05-08 01:10 | 41.30362 | 2.08329 | 23 ft | 1 kts | 305° |
| 2026-05-08 01:10 | 41.30364 | 2.08323 | 23 ft | 0 kts | 305° |